Time;durP1;ratioP1;P1;durP2;ratioP2;P2;SDS_P1;SDS_P2;PMS_P1;PMS_P2;Temp;Humidity;BMP_temperature;BMP_pressure;BME280_temperature;BME280_humidity;BME280_pressure;Samples;Min_cycle;Max_cycle;Signal;HPM_P1;HPM_P2
2022/12/06 00:01:34;;;;;;;9.63;7.07;;;5.20;74.80;;;;;;5039669;28;20029;-62
2022/12/06 00:04:03;;;;;;;9.43;6.63;;;5.20;74.80;;;;;;5034102;28;20503;-61
2022/12/06 00:06:31;;;;;;;10.68;7.07;;;5.20;74.70;;;;;;5040773;28;20052;-61
2022/12/06 00:08:58;;;;;;;10.82;7.47;;;5.20;74.70;;;;;;5029756;28;20423;-61
2022/12/06 00:11:27;;;;;;;11.32;6.93;;;5.20;74.80;;;;;;5016970;28;20049;-62
2022/12/06 00:13:55;;;;;;;15.00;7.38;;;5.20;74.80;;;;;;5022007;28;20029;-61
2022/12/06 00:16:21;;;;;;;11.32;7.50;;;5.20;74.80;;;;;;5032646;28;20119;-61
2022/12/06 00:18:47;;;;;;;11.68;7.38;;;5.20;75.40;;;;;;4931984;28;20542;-61
2022/12/06 00:21:22;;;;;;;14.15;8.00;;;5.20;74.60;;;;;;5040513;28;20260;-60
2022/12/06 00:23:52;;;;;;;12.23;7.78;;;5.20;74.60;;;;;;5038827;28;20475;-62
2022/12/06 00:26:19;;;;;;;15.05;7.72;;;5.20;74.60;;;;;;5034570;28;20083;-61
2022/12/06 00:28:45;;;;;;;15.00;8.10;;;5.20;74.60;;;;;;5041314;28;20077;-62
2022/12/06 00:31:16;;;;;;;13.80;7.97;;;5.20;74.70;;;;;;5039968;28;20061;-62
2022/12/06 00:33:42;;;;;;;10.18;6.60;;;5.20;74.80;;;;;;5039327;28;20022;-62
2022/12/06 00:36:13;;;;;;;15.48;8.05;;;5.20;74.80;;;;;;5041511;28;20071;-62
2022/12/06 00:38:39;;;;;;;14.88;8.63;;;5.20;75.00;;;;;;5036064;28;20163;-63
2022/12/06 00:41:09;;;;;;;14.25;8.55;;;5.20;75.10;;;;;;5037232;28;20097;-63
2022/12/06 00:43:36;;;;;;;12.50;7.97;;;5.20;75.20;;;;;;5037049;28;20029;-61
2022/12/06 00:46:04;;;;;;;14.02;8.02;;;5.30;75.30;;;;;;5044162;28;20033;-61
2022/12/06 00:48:30;;;;;;;12.55;7.68;;;5.30;75.30;;;;;;5043436;28;20021;-61
2022/12/06 00:50:56;;;;;;;12.45;7.22;;;5.30;75.30;;;;;;5043062;28;20014;-61
2022/12/06 00:53:22;;;;;;;9.48;6.80;;;5.30;75.30;;;;;;5035931;28;20025;-61
2022/12/06 00:55:48;;;;;;;10.90;6.95;;;5.30;75.20;;;;;;5035200;28;20050;-61
2022/12/06 00:58:14;;;;;;;9.95;6.88;;;5.40;75.20;;;;;;5043797;28;20075;-61
2022/12/06 01:00:40;;;;;;;9.48;7.00;;;5.40;75.20;;;;;;5038417;28;20035;-64
2022/12/06 01:03:06;;;;;;;12.18;7.50;;;5.40;75.00;;;;;;5042398;28;20048;-64
2022/12/06 01:05:33;;;;;;;11.27;7.80;;;5.40;75.00;;;;;;5040221;28;20041;-63
2022/12/06 01:07:59;;;;;;;12.75;7.85;;;5.40;75.00;;;;;;5035138;28;20081;-62
2022/12/06 01:10:25;;;;;;;11.88;7.68;;;5.40;75.00;;;;;;5038150;28;20104;-63
2022/12/06 01:12:51;;;;;;;10.85;7.80;;;5.40;75.00;;;;;;5041741;28;20113;-62
2022/12/06 01:15:16;;;;;;;11.80;7.65;;;5.50;75.10;;;;;;5040982;28;20044;-63
2022/12/06 01:17:42;;;;;;;11.02;7.45;;;5.50;75.00;;;;;;5049724;28;20030;-63
2022/12/06 01:20:08;;;;;;;10.20;7.28;;;5.50;74.70;;;;;;5044643;28;20026;-63
2022/12/06 01:22:34;;;;;;;10.05;7.60;;;5.40;74.60;;;;;;5026990;28;20121;-63
2022/12/06 01:25:00;;;;;;;12.65;8.40;;;5.40;74.60;;;;;;5042853;28;20543;-63
2022/12/06 01:27:25;;;;;;;12.55;7.88;;;5.40;74.70;;;;;;5040832;28;20034;-63
2022/12/06 01:29:51;;;;;;;12.88;8.85;;;5.40;74.80;;;;;;5011787;28;20045;-63
2022/12/06 01:32:17;;;;;;;16.20;8.07;;;5.40;75.00;;;;;;5038824;28;20085;-63
2022/12/06 01:34:44;;;;;;;12.20;7.20;;;5.40;75.00;;;;;;5019656;28;20029;-63
2022/12/06 01:37:10;;;;;;;11.13;6.32;;;5.40;75.00;;;;;;5037907;28;20069;-63
2022/12/06 01:39:36;;;;;;;10.05;6.53;;;5.40;75.00;;;;;;5028903;28;20032;-62
2022/12/06 01:42:01;;;;;;;14.10;7.22;;;5.50;75.00;;;;;;5041793;28;20528;-63
2022/12/06 01:44:44;;;;;;;9.65;6.25;;;5.50;75.10;;;;;;5041592;28;20026;-63
2022/12/06 01:47:27;;;;;;;9.05;6.25;;;5.50;75.20;;;;;;5020853;28;20053;-63
2022/12/06 01:50:08;;;;;;;11.40;6.93;;;5.50;75.10;;;;;;5036732;28;20032;-63
2022/12/06 01:52:42;;;;;;;11.93;6.55;;;5.50;75.10;;;;;;5032924;28;20026;-62
2022/12/06 01:55:11;;;;;;;10.45;7.07;;;5.50;75.10;;;;;;5023629;28;20060;-62
2022/12/06 01:57:37;;;;;;;11.57;7.53;;;5.50;75.00;;;;;;5023591;28;20041;-63
2022/12/06 02:00:03;;;;;;;11.43;7.20;;;5.50;75.00;;;;;;5039818;28;20028;-63
2022/12/06 02:02:29;;;;;;;9.25;6.90;;;5.50;74.90;;;;;;5038938;28;20033;-63
2022/12/06 02:04:56;;;;;;;11.30;7.22;;;5.50;74.90;;;;;;5045530;28;20029;-63
2022/12/06 02:07:26;;;;;;;11.30;8.07;;;5.50;75.00;;;;;;5038099;28;20053;-62
2022/12/06 02:09:52;;;;;;;13.07;8.13;;;5.50;75.00;;;;;;5042969;28;20025;-62
2022/12/06 02:12:18;;;;;;;11.07;7.57;;;5.50;75.00;;;;;;5042330;28;20017;-62
2022/12/06 02:14:47;;;;;;;13.05;7.60;;;5.50;74.90;;;;;;5034702;28;20072;-62
2022/12/06 02:17:22;;;;;;;13.48;7.32;;;5.50;74.90;;;;;;5024957;28;20025;-62
2022/12/06 02:20:25;;;;;;;11.15;7.65;;;5.50;75.00;;;;;;5038920;28;20063;-61
2022/12/06 02:23:03;;;;;;;12.05;7.93;;;5.50;75.00;;;;;;5040470;28;20025;-62
2022/12/06 02:25:43;;;;;;;12.68;7.32;;;5.50;74.90;;;;;;5023280;28;20041;-62
2022/12/06 02:28:28;;;;;;;10.63;7.13;;;5.50;74.80;;;;;;5030790;28;20650;-62
2022/12/06 02:31:00;;;;;;;11.73;7.13;;;5.50;75.10;;;;;;5041561;28;20021;-62
2022/12/06 02:33:48;;;;;;;13.23;7.47;;;5.50;75.10;;;;;;5047835;28;20096;-63
2022/12/06 02:36:40;;;;;;;11.20;7.15;;;5.50;75.40;;;;;;5030928;28;20032;-62
2022/12/06 02:39:10;;;;;;;9.80;6.80;;;5.50;75.40;;;;;;5039796;28;20025;-61
2022/12/06 02:41:46;;;;;;;10.02;6.82;;;5.50;75.20;;;;;;5037210;28;20025;-62
2022/12/06 02:44:19;;;;;;;9.13;6.50;;;5.50;75.10;;;;;;5015259;28;20030;-62
2022/12/06 02:46:47;;;;;;;11.43;7.13;;;5.50;75.10;;;;;;5039896;28;20101;-62
2022/12/06 02:49:13;;;;;;;10.60;6.72;;;5.50;75.10;;;;;;5015012;28;20026;-62
2022/12/06 02:51:40;;;;;;;13.77;7.40;;;5.50;75.10;;;;;;5032885;28;20025;-62
2022/12/06 02:54:08;;;;;;;9.30;6.53;;;5.50;75.20;;;;;;5038914;28;22929;-63
2022/12/06 02:56:34;;;;;;;10.35;6.63;;;5.50;75.30;;;;;;5045346;28;20067;-61
2022/12/06 02:59:00;;;;;;;9.77;6.55;;;5.60;75.30;;;;;;5042208;28;20025;-61
2022/12/06 03:01:30;;;;;;;10.57;7.22;;;5.60;75.30;;;;;;5032999;28;20032;-62
2022/12/06 03:04:04;;;;;;;12.88;7.03;;;5.50;75.30;;;;;;5021054;28;20036;-63
2022/12/06 03:06:43;;;;;;;10.77;7.20;;;5.60;75.40;;;;;;5039436;28;20047;-61
2022/12/06 03:09:27;;;;;;;8.90;6.65;;;5.60;75.30;;;;;;5040175;28;20104;-61
2022/12/06 03:12:32;;;;;;;11.00;7.43;;;5.60;75.20;;;;;;5036678;28;20618;-62
2022/12/06 03:15:09;;;;;;;13.88;7.03;;;5.60;75.10;;;;;;5042164;28;20082;-62
2022/12/06 03:17:50;;;;;;;11.90;7.32;;;5.70;75.00;;;;;;5014520;28;20083;-61
2022/12/06 03:20:43;;;;;;;12.85;7.07;;;5.70;74.90;;;;;;5040540;28;20462;-62
2022/12/06 03:23:17;;;;;;;11.80;7.25;;;5.70;74.90;;;;;;5027822;28;20038;-63
2022/12/06 03:25:45;;;;;;;10.43;7.30;;;5.60;74.80;;;;;;5036452;28;20042;-61
2022/12/06 03:28:14;;;;;;;13.15;6.57;;;5.60;74.90;;;;;;5033114;28;20097;-60
2022/12/06 03:30:43;;;;;;;9.90;7.00;;;5.60;74.90;;;;;;5033240;28;20057;-61
2022/12/06 03:33:11;;;;;;;10.93;6.47;;;5.60;75.00;;;;;;5034614;28;20029;-62
2022/12/06 03:35:37;;;;;;;8.82;6.63;;;5.60;75.00;;;;;;5019465;28;20116;-61
2022/12/06 03:38:22;;;;;;;10.25;6.55;;;5.60;75.00;;;;;;5040796;28;20068;-60
2022/12/06 03:40:51;;;;;;;8.65;6.45;;;5.70;75.00;;;;;;5039142;28;20022;-63
2022/12/06 03:43:17;;;;;;;9.35;6.53;;;5.60;74.70;;;;;;5025464;28;20089;-61
2022/12/06 03:45:52;;;;;;;10.10;6.60;;;5.60;74.60;;;;;;5041037;28;20045;-60
2022/12/06 03:48:29;;;;;;;9.40;6.55;;;5.60;74.60;;;;;;5033422;28;20021;-60
2022/12/06 03:51:02;;;;;;;9.45;6.78;;;5.60;74.60;;;;;;5021914;28;20022;-61
2022/12/06 03:53:28;;;;;;;10.98;6.88;;;5.50;74.40;;;;;;5039345;28;20116;-61
2022/12/06 03:55:53;;;;;;;10.20;6.85;;;5.50;74.30;;;;;;5041427;28;20087;-61
2022/12/06 03:58:19;;;;;;;14.32;6.93;;;5.50;74.30;;;;;;5037168;28;20059;-61
2022/12/06 04:00:45;;;;;;;11.50;7.07;;;5.40;74.30;;;;;;5042636;28;20055;-61
2022/12/06 04:03:11;;;;;;;12.77;7.13;;;5.40;74.30;;;;;;5044021;28;20056;-61
2022/12/06 04:05:37;;;;;;;10.52;6.78;;;5.40;74.20;;;;;;5051835;28;20136;-62
2022/12/06 04:08:02;;;;;;;9.07;6.80;;;5.30;74.10;;;;;;5043990;28;20082;-61
2022/12/06 04:10:28;;;;;;;18.33;7.80;;;5.30;74.10;;;;;;5044296;28;20045;-61
2022/12/06 04:13:00;;;;;;;16.58;7.43;;;5.20;74.10;;;;;;5028122;28;20032;-62
2022/12/06 04:15:37;;;;;;;14.73;6.32;;;5.20;74.20;;;;;;5036865;28;20032;-63
2022/12/06 04:18:13;;;;;;;13.07;6.70;;;5.10;74.10;;;;;;5025028;28;20033;-63
2022/12/06 04:23:37;;;;;;;8.65;5.68;;;5.00;73.90;;;;;;5036773;28;20052;-65
2022/12/06 04:26:05;;;;;;;9.73;6.13;;;5.00;73.80;;;;;;5034507;28;20132;-63
2022/12/06 04:39:29;;;;;;;8.80;6.05;;;4.70;73.90;;;;;;5036373;28;20039;-63
2022/12/06 04:44:39;;;;;;;6.97;4.80;;;4.70;74.10;;;;;;5039456;28;20099;-62
2022/12/06 04:47:06;;;;;;;11.75;6.85;;;4.60;74.20;;;;;;5009141;28;20445;-63
2022/12/06 04:49:32;;;;;;;8.52;6.20;;;4.60;74.40;;;;;;5036440;28;20029;-63
2022/12/06 04:51:57;;;;;;;12.48;6.85;;;4.60;74.40;;;;;;5040828;28;20032;-61
2022/12/06 04:54:25;;;;;;;10.25;7.07;;;4.60;74.50;;;;;;5040999;28;20033;-61
2022/12/06 04:56:50;;;;;;;14.27;8.35;;;4.60;74.50;;;;;;5042058;28;20033;-62
2022/12/06 04:59:16;;;;;;;15.25;7.78;;;4.60;74.40;;;;;;5043550;28;20039;-62
2022/12/06 05:01:42;;;;;;;10.30;6.38;;;4.60;74.60;;;;;;5041414;28;20487;-61
2022/12/06 05:04:07;;;;;;;13.00;6.80;;;4.60;74.80;;;;;;5020346;28;20114;-60
2022/12/06 05:06:33;;;;;;;15.98;7.53;;;4.50;74.90;;;;;;5041538;28;20045;-62
2022/12/06 05:08:59;;;;;;;12.50;7.35;;;4.60;74.90;;;;;;5044749;28;20025;-62
2022/12/06 05:11:24;;;;;;;12.50;6.82;;;4.60;75.00;;;;;;5043876;28;20065;-62
2022/12/06 05:13:50;;;;;;;13.77;7.55;;;4.60;75.20;;;;;;5020606;28;20052;-62
2022/12/06 05:16:16;;;;;;;10.15;6.63;;;4.60;75.20;;;;;;5039094;28;20510;-62
2022/12/06 05:18:41;;;;;;;11.77;7.32;;;4.60;75.20;;;;;;5033576;28;20022;-62
2022/12/06 05:21:14;;;;;;;20.67;8.45;;;4.60;75.30;;;;;;5039999;28;20518;-62
2022/12/06 05:23:40;;;;;;;15.35;8.52;;;4.60;75.40;;;;;;5014067;28;20555;-61
2022/12/06 05:26:15;;;;;;;15.60;8.50;;;4.60;75.30;;;;;;5044041;28;20034;-62
2022/12/06 05:28:42;;;;;;;12.95;7.90;;;4.60;75.40;;;;;;5046781;28;20115;-61
2022/12/06 05:31:08;;;;;;;14.10;8.07;;;4.60;75.40;;;;;;5031649;28;20550;-60
2022/12/06 05:33:34;;;;;;;11.23;7.30;;;4.70;75.60;;;;;;5035376;28;20025;-61
2022/12/06 05:36:09;;;;;;;12.30;7.78;;;4.70;75.40;;;;;;5034120;28;20026;-64
2022/12/06 05:38:35;;;;;;;11.88;8.00;;;4.70;75.50;;;;;;5038172;28;20135;-61
2022/12/06 05:41:01;;;;;;;8.48;6.45;;;4.70;75.40;;;;;;5029728;28;20483;-61
2022/12/06 05:43:28;;;;;;;8.13;6.10;;;4.70;75.40;;;;;;5038379;28;20048;-62
2022/12/06 05:45:54;;;;;;;10.32;6.30;;;4.70;75.30;;;;;;5040405;28;20037;-61
2022/12/06 05:48:20;;;;;;;9.07;5.80;;;4.80;75.30;;;;;;5043849;28;20060;-61
2022/12/06 05:50:47;;;;;;;7.43;5.72;;;4.80;75.20;;;;;;5041472;28;20048;-61
2022/12/06 05:53:13;;;;;;;8.40;5.80;;;4.80;75.20;;;;;;5039223;28;20046;-61
2022/12/06 05:55:39;;;;;;;7.50;5.53;;;4.80;75.00;;;;;;5038183;28;20030;-61
2022/12/06 05:58:05;;;;;;;7.75;5.82;;;4.80;74.90;;;;;;5020166;28;20056;-61
2022/12/06 06:00:31;;;;;;;9.00;6.25;;;4.80;74.90;;;;;;5045901;28;20033;-62
2022/12/06 06:02:57;;;;;;;8.55;6.18;;;4.70;74.80;;;;;;5041738;28;20045;-61
2022/12/06 06:05:22;;;;;;;18.23;10.52;;;4.70;74.90;;;;;;5035849;28;20051;-61
2022/12/06 06:07:48;;;;;;;15.30;8.77;;;4.80;74.80;;;;;;5043078;28;20029;-62
2022/12/06 06:10:15;;;;;;;87.75;32.72;;;4.70;74.80;;;;;;5046929;28;20049;-61
2022/12/06 06:12:40;;;;;;;62.05;26.30;;;4.70;75.50;;;;;;5044820;28;20018;-61
2022/12/06 06:15:06;;;;;;;19.02;11.02;;;4.70;74.90;;;;;;5036271;28;20039;-61
2022/12/06 06:17:33;;;;;;;21.55;11.73;;;4.70;74.90;;;;;;5037523;28;20028;-63
2022/12/06 06:20:04;;;;;;;13.57;9.02;;;4.80;75.00;;;;;;5042287;28;20017;-60
2022/12/06 06:22:31;;;;;;;19.30;11.55;;;4.70;74.90;;;;;;5039634;28;20026;-61
2022/12/06 06:24:57;;;;;;;12.80;9.10;;;4.70;74.90;;;;;;5040395;28;20029;-62
2022/12/06 06:27:22;;;;;;;12.73;8.52;;;4.70;74.90;;;;;;5035320;28;20064;-62
2022/12/06 06:29:48;;;;;;;13.48;8.77;;;4.70;74.90;;;;;;5013873;28;20021;-62
2022/12/06 06:32:14;;;;;;;13.75;8.48;;;4.70;74.90;;;;;;5037464;28;20060;-63
2022/12/06 06:34:39;;;;;;;13.48;8.82;;;4.70;74.90;;;;;;5034395;28;20022;-62
2022/12/06 06:37:05;;;;;;;16.67;9.20;;;4.70;75.00;;;;;;5041117;28;20064;-62
2022/12/06 06:39:31;;;;;;;14.82;9.48;;;4.70;75.10;;;;;;5034027;28;20026;-62
2022/12/06 06:41:57;;;;;;;15.73;9.95;;;4.70;75.00;;;;;;5029090;28;20031;-62
2022/12/06 06:44:22;;;;;;;15.68;9.18;;;4.70;75.10;;;;;;5018650;28;20400;-62
2022/12/06 06:46:48;;;;;;;18.35;9.60;;;4.70;75.10;;;;;;5041383;28;20449;-60
2022/12/06 06:49:14;;;;;;;14.55;9.35;;;4.70;75.00;;;;;;5037804;28;20504;-62
2022/12/06 06:51:39;;;;;;;16.10;9.90;;;4.80;75.00;;;;;;5048829;28;20017;-62
2022/12/06 06:54:05;;;;;;;16.77;9.70;;;4.80;75.00;;;;;;5042668;28;20036;-63
2022/12/06 06:56:31;;;;;;;15.38;9.68;;;4.80;75.10;;;;;;5045549;28;20077;-61
2022/12/06 06:58:56;;;;;;;16.20;9.90;;;4.80;75.00;;;;;;5045574;28;20037;-62
2022/12/06 07:01:23;;;;;;;19.13;10.18;;;4.80;75.10;;;;;;5026242;28;20021;-61
2022/12/06 07:03:50;;;;;;;17.30;10.25;;;4.80;75.10;;;;;;5032989;28;20026;-61
2022/12/06 07:06:16;;;;;;;20.95;11.18;;;4.80;75.10;;;;;;5040753;28;20029;-62
2022/12/06 07:08:42;;;;;;;17.83;10.45;;;4.80;75.20;;;;;;5033307;28;20547;-63
2022/12/06 07:11:09;;;;;;;16.85;9.43;;;4.90;75.20;;;;;;5028041;28;20042;-61
2022/12/06 07:13:37;;;;;;;19.48;9.00;;;4.90;75.20;;;;;;5029799;28;20108;-61
2022/12/06 07:16:10;;;;;;;13.93;8.80;;;4.90;75.10;;;;;;5042954;28;20032;-60
2022/12/06 07:18:36;;;;;;;15.38;9.07;;;4.90;75.70;;;;;;5042711;28;20056;-61
2022/12/06 07:21:05;;;;;;;14.55;8.85;;;4.90;74.90;;;;;;5042966;28;20029;-60
2022/12/06 07:23:33;;;;;;;13.48;8.48;;;5.00;74.90;;;;;;5045615;28;20017;-61
2022/12/06 07:26:10;;;;;;;15.30;9.27;;;5.00;74.90;;;;;;5038908;28;20353;-61
2022/12/06 07:28:37;;;;;;;18.33;9.45;;;5.00;74.90;;;;;;5017444;28;20026;-61
2022/12/06 07:31:12;;;;;;;14.13;9.18;;;5.00;74.80;;;;;;5030559;28;20476;-62
2022/12/06 07:33:38;;;;;;;18.58;9.70;;;5.00;74.80;;;;;;5040930;28;20093;-63
2022/12/06 07:36:05;;;;;;;15.60;9.32;;;5.00;74.80;;;;;;5032173;28;20093;-62
2022/12/06 07:38:31;;;;;;;15.15;9.52;;;5.00;74.80;;;;;;5021268;28;20022;-63
2022/12/06 07:44:59;;;;;;;14.30;8.32;;;5.00;74.80;;;;;;5026066;28;20085;-63
2022/12/06 07:46:42;;;;;;;13.82;8.45;;;5.10;74.80;;;;;;5042089;28;20060;-63
2022/12/06 07:49:08;;;;;;;14.35;8.77;;;5.10;74.80;;;;;;5043618;28;20049;-64
2022/12/06 07:51:34;;;;;;;14.00;8.90;;;5.10;74.80;;;;;;5038746;28;20029;-63
2022/12/06 07:54:00;;;;;;;274.65;140.25;;;5.10;74.80;;;;;;5034367;28;20025;-62
2022/12/06 07:56:26;;;;;;;58.30;36.03;;;5.20;74.80;;;;;;5043259;28;20033;-62
2022/12/06 07:58:52;;;;;;;27.55;16.40;;;5.20;74.60;;;;;;5038679;28;20079;-63
2022/12/06 08:01:18;;;;;;;19.13;12.07;;;5.20;74.60;;;;;;5038458;28;20033;-62
2022/12/06 08:03:44;;;;;;;20.08;10.82;;;5.20;74.60;;;;;;5037678;28;20017;-62
2022/12/06 08:06:09;;;;;;;17.70;10.27;;;5.20;74.50;;;;;;5018744;28;20045;-63
2022/12/06 08:08:35;;;;;;;17.20;9.60;;;5.20;74.40;;;;;;5036616;28;20077;-62
2022/12/06 08:11:04;;;;;;;16.35;10.10;;;5.20;74.40;;;;;;5020798;28;20080;-63
2022/12/06 08:13:30;;;;;;;15.85;9.45;;;5.20;74.40;;;;;;5038745;28;20107;-62
2022/12/06 08:15:56;;;;;;;19.08;10.73;;;5.30;74.50;;;;;;5046183;28;20033;-63
2022/12/06 08:18:21;;;;;;;25.15;11.93;;;5.30;74.50;;;;;;5039483;28;20029;-63
2022/12/06 08:20:47;;;;;;;26.83;11.35;;;5.30;74.50;;;;;;5037799;28;20025;-62
2022/12/06 08:23:13;;;;;;;19.70;11.07;;;5.30;74.50;;;;;;5044531;28;20112;-62
2022/12/06 08:25:38;;;;;;;18.08;10.27;;;5.30;74.40;;;;;;5037916;28;20026;-62
2022/12/06 08:28:04;;;;;;;15.70;9.60;;;5.30;74.40;;;;;;5041913;28;20030;-64
2022/12/06 08:30:31;;;;;;;17.83;10.30;;;5.30;74.40;;;;;;5016343;28;20104;-62
2022/12/06 08:32:56;;;;;;;19.13;10.50;;;5.40;74.40;;;;;;5037525;28;20421;-63
2022/12/06 08:35:22;;;;;;;18.45;11.02;;;5.40;74.40;;;;;;5037057;28;20036;-63
2022/12/06 08:37:47;;;;;;;18.48;10.65;;;5.40;74.40;;;;;;5041798;28;20364;-62
2022/12/06 08:40:14;;;;;;;20.92;11.15;;;5.40;74.40;;;;;;5037454;28;20478;-62
2022/12/06 08:42:40;;;;;;;17.60;11.07;;;5.50;74.20;;;;;;5042597;28;20045;-62
2022/12/06 08:45:07;;;;;;;19.83;11.45;;;5.50;74.00;;;;;;5042963;28;20115;-62
2022/12/06 08:47:32;;;;;;;17.33;9.80;;;5.50;74.10;;;;;;5024036;28;20034;-62
2022/12/06 08:49:58;;;;;;;22.92;13.93;;;5.50;74.90;;;;;;5038461;28;20060;-62
2022/12/06 08:52:24;;;;;;;20.42;11.32;;;5.60;74.20;;;;;;5033289;28;20044;-63
2022/12/06 08:54:50;;;;;;;19.75;10.45;;;5.60;74.90;;;;;;5041709;28;20029;-62
2022/12/06 08:57:15;;;;;;;18.25;10.43;;;5.60;74.20;;;;;;5045164;28;20032;-63
2022/12/06 08:59:41;;;;;;;19.00;10.82;;;5.60;74.20;;;;;;5040668;28;20575;-62
2022/12/06 09:02:10;;;;;;;16.95;10.23;;;5.60;74.10;;;;;;5019612;28;20353;-63
2022/12/06 09:04:35;;;;;;;19.25;10.23;;;5.70;74.10;;;;;;5039244;28;20034;-62
2022/12/06 09:07:01;;;;;;;17.65;9.90;;;5.70;74.00;;;;;;5052045;28;20033;-62
2022/12/06 09:09:27;;;;;;;15.50;9.32;;;5.70;73.90;;;;;;5048213;28;20029;-62
2022/12/06 09:11:52;;;;;;;16.48;10.27;;;5.70;73.70;;;;;;5056375;28;20054;-62
2022/12/06 09:14:18;;;;;;;20.27;11.38;;;5.70;73.60;;;;;;5035748;28;20063;-62
2022/12/06 09:16:44;;;;;;;17.98;10.55;;;5.70;73.60;;;;;;5041395;28;20022;-63
2022/12/06 09:19:11;;;;;;;17.73;10.10;;;5.70;73.70;;;;;;5047737;28;20039;-62
2022/12/06 09:21:41;;;;;;;16.55;9.73;;;5.70;73.70;;;;;;5042596;28;20033;-63
2022/12/06 09:24:10;;;;;;;16.38;9.85;;;5.80;73.70;;;;;;5041928;28;20029;-62
2022/12/06 09:26:36;;;;;;;16.30;9.93;;;5.80;73.80;;;;;;5034874;28;20030;-63
2022/12/06 09:29:02;;;;;;;18.50;10.13;;;5.80;73.80;;;;;;5043986;28;20108;-62
2022/12/06 09:31:28;;;;;;;19.13;10.63;;;5.90;73.70;;;;;;5035831;28;20025;-64
2022/12/06 09:33:53;;;;;;;18.67;10.40;;;5.90;74.30;;;;;;5026601;28;20072;-62
2022/12/06 09:36:44;;;;;;;21.60;10.05;;;5.90;73.60;;;;;;5038757;28;20455;-62
2022/12/06 09:39:30;;;;;;;16.20;8.93;;;5.90;73.40;;;;;;5044286;28;20029;-63
2022/12/06 09:42:20;;;;;;;19.05;10.68;;;6.00;73.60;;;;;;5040588;28;20039;-62
2022/12/06 09:44:58;;;;;;;16.20;9.88;;;6.00;73.50;;;;;;5039923;28;20432;-62
2022/12/06 09:47:32;;;;;;;20.30;10.60;;;6.00;73.50;;;;;;5041838;28;20095;-61
2022/12/06 09:50:28;;;;;;;19.10;10.65;;;6.00;73.30;;;;;;5039383;28;20021;-62
2022/12/06 09:53:26;;;;;;;19.55;10.40;;;6.00;73.10;;;;;;5041647;28;20120;-62
2022/12/06 09:56:01;;;;;;;16.05;9.40;;;6.00;73.00;;;;;;4978258;28;20035;-61
2022/12/06 09:58:40;;;;;;;14.48;8.88;;;6.00;73.20;;;;;;4972423;28;20024;-61
2022/12/06 10:01:36;;;;;;;18.25;9.38;;;6.00;73.30;;;;;;4979787;28;20042;-61
2022/12/06 10:04:23;;;;;;;21.42;9.52;;;6.10;73.20;;;;;;4966705;28;20532;-61
2022/12/06 10:07:16;;;;;;;16.10;8.82;;;6.10;73.10;;;;;;4981636;28;20155;-62
2022/12/06 10:10:00;;;;;;;14.35;8.75;;;6.10;72.90;;;;;;4975830;28;20023;-61
2022/12/06 10:12:53;;;;;;;18.38;8.40;;;6.10;72.80;;;;;;4975387;28;20702;-62
2022/12/06 10:15:44;;;;;;;14.73;7.55;;;6.10;72.70;;;;;;4965456;28;20095;-62
2022/12/06 10:18:50;;;;;;;14.43;7.40;;;6.10;73.00;;;;;;4972397;28;20039;-61
2022/12/06 10:21:22;;;;;;;12.73;6.97;;;6.20;72.90;;;;;;4933581;28;20039;-61
2022/12/06 10:24:25;;;;;;;15.15;7.45;;;6.20;73.00;;;;;;4981804;28;20467;-62
2022/12/06 10:26:53;;;;;;;10.80;6.90;;;6.20;72.80;;;;;;4981010;28;20050;-63
2022/12/06 10:29:43;;;;;;;13.02;7.30;;;6.20;73.00;;;;;;4981190;28;20094;-63
2022/12/06 10:32:16;;;;;;;11.88;6.78;;;6.20;72.80;;;;;;5007696;28;20116;-61
2022/12/06 10:34:56;;;;;;;13.80;7.78;;;6.30;72.90;;;;;;5037398;28;20026;-62
2022/12/06 10:37:50;;;;;;;15.35;8.63;;;6.30;73.10;;;;;;5038576;28;20045;-62
2022/12/06 10:40:25;;;;;;;17.13;8.13;;;6.30;72.80;;;;;;5036319;28;20022;-62
2022/12/06 10:42:50;;;;;;;;;;;6.40;72.70;;;;;;5045136;28;20032;-62
2022/12/06 10:48:35;;;;;;;14.35;8.57;;;6.40;72.70;;;;;;5035862;28;20047;-65
2022/12/06 10:51:08;;;;;;;14.20;8.88;;;6.40;72.70;;;;;;5021399;28;20735;-65
2022/12/06 10:53:46;;;;;;;15.00;9.35;;;6.40;72.90;;;;;;5038217;28;20052;-63
2022/12/06 10:56:20;;;;;;;15.57;8.45;;;6.50;72.90;;;;;;5047638;28;20021;-65
2022/12/06 10:59:19;;;;;;;11.40;7.75;;;6.50;72.80;;;;;;5047446;28;20059;-65
2022/12/06 11:01:46;;;;;;;15.10;7.95;;;6.50;72.60;;;;;;5046210;28;20087;-63
2022/12/06 11:04:21;;;;;;;13.77;8.23;;;6.50;72.80;;;;;;5038530;28;20025;-63
2022/12/06 11:06:54;;;;;;;12.85;7.88;;;6.60;72.70;;;;;;5039633;28;20049;-62
2022/12/06 11:09:35;;;;;;;15.52;8.13;;;6.60;72.70;;;;;;5043537;28;20037;-62
2022/12/06 11:12:12;;;;;;;12.80;7.78;;;6.60;72.70;;;;;;5044059;28;20047;-64
2022/12/06 11:14:45;;;;;;;12.40;7.63;;;6.60;72.70;;;;;;5017997;28;20046;-61
2022/12/06 11:17:16;;;;;;;13.45;7.25;;;6.70;72.70;;;;;;5044527;28;20167;-63
2022/12/06 11:19:49;;;;;;;12.05;7.85;;;6.70;72.70;;;;;;5042085;28;20017;-63
2022/12/06 11:22:43;;;;;;;18.58;10.77;;;6.80;72.70;;;;;;5037444;28;20033;-63
2022/12/06 11:25:22;;;;;;;14.38;8.75;;;6.80;72.60;;;;;;5046021;28;20030;-61
2022/12/06 11:28:20;;;;;;;15.30;8.88;;;6.80;72.70;;;;;;5047780;28;20036;-61
2022/12/06 11:30:50;;;;;;;12.13;7.50;;;6.90;72.50;;;;;;5045679;28;20025;-63
2022/12/06 11:33:16;;;;;;;12.43;7.47;;;6.90;72.60;;;;;;5043158;28;20021;-62
2022/12/06 11:35:45;;;;;;;19.13;7.88;;;6.90;72.50;;;;;;5040218;28;20052;-61
2022/12/06 11:38:13;;;;;;;14.65;7.20;;;6.90;72.40;;;;;;5038172;28;20036;-61
2022/12/06 11:40:45;;;;;;;10.57;6.38;;;6.90;72.30;;;;;;5047337;28;20090;-61
2022/12/06 11:43:23;;;;;;;12.80;6.40;;;6.90;72.40;;;;;;5035490;28;20508;-62
2022/12/06 11:45:49;;;;;;;9.90;6.88;;;7.00;72.50;;;;;;5038343;28;20034;-61
2022/12/06 11:48:21;;;;;;;18.73;10.23;;;7.00;72.50;;;;;;5023271;28;20025;-61
2022/12/06 11:50:48;;;;;;;11.02;6.97;;;7.00;72.40;;;;;;5044751;28;20032;-61
2022/12/06 11:53:46;;;;;;;12.50;6.93;;;7.10;72.60;;;;;;5035641;28;20054;-63
2022/12/06 11:56:41;;;;;;;16.35;10.70;;;7.10;72.30;;;;;;5038958;28;20029;-61
2022/12/06 11:59:25;;;;;;;11.55;7.82;;;7.10;72.40;;;;;;5032055;28;20042;-62
2022/12/06 12:01:54;;;;;;;11.30;6.23;;;7.20;72.30;;;;;;5037708;28;20021;-62
2022/12/06 12:04:36;;;;;;;13.18;7.18;;;7.20;72.40;;;;;;5040950;28;20121;-63
2022/12/06 12:07:08;;;;;;;9.63;6.43;;;7.20;72.30;;;;;;5038787;28;20045;-62
2022/12/06 12:10:00;;;;;;;9.95;6.45;;;7.30;72.00;;;;;;5044458;28;20026;-63
2022/12/06 12:15:21;;;;;;;8.10;5.30;;;7.30;72.20;;;;;;5036616;28;20047;-61
2022/12/06 12:17:52;;;;;;;7.03;5.47;;;7.40;72.30;;;;;;5045630;28;20021;-61
2022/12/06 12:20:22;;;;;;;12.60;6.75;;;7.40;72.20;;;;;;5040461;28;20496;-62
2022/12/06 12:23:03;;;;;;;10.15;6.40;;;7.40;72.20;;;;;;5034291;28;20090;-61
2022/12/06 12:25:32;;;;;;;9.82;6.18;;;7.40;72.10;;;;;;5040149;28;20021;-62
2022/12/06 12:28:03;;;;;;;10.10;6.13;;;7.40;71.90;;;;;;5044860;28;20035;-62
2022/12/06 12:30:31;;;;;;;9.55;5.95;;;7.50;71.90;;;;;;5014876;28;20060;-62
2022/12/06 12:33:05;;;;;;;8.95;6.07;;;7.50;71.90;;;;;;5033795;28;20029;-63
2022/12/06 12:35:34;;;;;;;9.48;6.07;;;7.60;71.90;;;;;;5016570;28;20029;-62
2022/12/06 12:38:11;;;;;;;8.88;6.18;;;7.50;72.00;;;;;;5046928;28;20101;-62
2022/12/06 12:40:57;;;;;;;10.18;6.63;;;7.60;71.90;;;;;;5032243;28;20034;-62
2022/12/06 12:43:27;;;;;;;11.90;6.78;;;7.60;71.50;;;;;;5032058;28;20025;-62
2022/12/06 12:46:18;;;;;;;10.70;7.05;;;7.60;71.90;;;;;;5041007;28;20045;-62
2022/12/06 12:48:47;;;;;;;12.45;6.25;;;7.60;71.70;;;;;;5036234;28;20021;-62
2022/12/06 12:51:32;;;;;;;9.43;5.70;;;7.70;71.90;;;;;;5035898;28;20045;-61
2022/12/06 12:54:18;;;;;;;11.98;6.68;;;7.70;71.60;;;;;;5024532;28;20038;-63
2022/12/06 12:56:43;;;;;;;8.07;5.63;;;7.70;72.00;;;;;;5028376;28;20029;-62
2022/12/06 12:59:19;;;;;;;9.70;5.93;;;7.80;71.90;;;;;;5042821;28;20479;-62
2022/12/06 13:01:56;;;;;;;8.60;5.82;;;7.80;71.10;;;;;;5034696;28;20060;-62
2022/12/06 13:04:35;;;;;;;9.85;5.55;;;7.80;70.80;;;;;;5044064;28;20085;-63
2022/12/06 13:07:06;;;;;;;15.57;6.30;;;7.70;70.60;;;;;;5013783;28;20121;-63
2022/12/06 13:09:31;;;;;;;9.75;6.38;;;7.70;70.80;;;;;;5032134;28;20021;-63
2022/12/06 13:12:04;;;;;;;9.20;6.07;;;7.70;70.90;;;;;;5040440;28;20128;-61
2022/12/06 13:14:31;;;;;;;8.57;5.95;;;7.70;70.70;;;;;;5044736;28;20040;-62
2022/12/06 13:17:02;;;;;;;10.88;6.45;;;7.70;70.40;;;;;;5039400;28;20378;-63
2022/12/06 13:19:36;;;;;;;11.35;6.22;;;7.60;70.60;;;;;;5037050;28;20032;-63
2022/12/06 13:22:05;;;;;;;13.23;6.18;;;7.60;70.50;;;;;;5038145;28;20014;-62
2022/12/06 13:24:33;;;;;;;9.80;5.95;;;7.60;70.80;;;;;;5038246;28;20089;-61
2022/12/06 13:27:03;;;;;;;9.82;6.15;;;7.60;70.80;;;;;;5041327;28;20036;-62
2022/12/06 13:29:34;;;;;;;8.40;5.75;;;7.50;70.80;;;;;;5042763;28;20028;-63
2022/12/06 13:32:12;;;;;;;9.10;6.32;;;7.50;70.90;;;;;;5041849;28;20032;-62
2022/12/06 13:34:44;;;;;;;8.60;5.57;;;7.50;70.80;;;;;;5020532;28;20033;-62